Time;durP1;ratioP1;P1;durP2;ratioP2;P2;SDS_P1;SDS_P2;PMS_P1;PMS_P2;Temp;Humidity;BMP_temperature;BMP_pressure;BME280_temperature;BME280_humidity;BME280_pressure;Samples;Min_cycle;Max_cycle;Signal;HPM_P1;HPM_P2
2023/06/07 00:02:16;;;;;;;7.65;1.55;;;;;;;16.35;100.00;100933.84;4985941;28;20054;-73
2023/06/07 00:04:42;;;;;;;5.28;1.75;;;;;;;15.53;100.00;100805.31;5017800;28;20074;-74
2023/06/07 00:07:08;;;;;;;2.35;1.40;;;;;;;16.16;100.00;100920.88;4992662;28;20038;-74
2023/06/07 00:09:33;;;;;;;2.72;1.92;;;;;;;15.62;100.00;100812.25;4993759;28;20106;-74
2023/06/07 00:11:59;;;;;;;3.33;1.52;;;;;;;15.39;100.00;100796.69;4991513;28;20038;-73
2023/06/07 00:14:25;;;;;;;3.15;1.20;;;;;;;15.39;100.00;100833.72;4994301;28;20101;-74
2023/06/07 00:16:52;;;;;;;3.75;1.80;;;;;;;16.04;100.00;100937.81;4986675;28;20054;-73
2023/06/07 00:19:21;;;;;;;2.17;1.30;;;;;;;16.06;100.00;100936.91;4991220;28;20058;-73
2023/06/07 00:21:49;;;;;;;3.10;1.65;;;;;;;16.01;100.00;100942.25;4988169;28;20103;-72
2023/06/07 00:24:16;;;;;;;3.95;2.22;;;;;;;15.34;100.00;100814.41;4992991;28;20034;-73
2023/06/07 00:26:42;;;;;;;2.92;1.77;;;;;;;15.41;100.00;100845.16;4977390;28;20597;-74
2023/06/07 00:29:07;;;;;;;2.63;1.02;;;;;;;16.06;100.00;100942.19;4984509;28;20054;-74
2023/06/07 00:31:33;;;;;;;2.72;1.55;;;;;;;15.48;100.00;100854.75;4992207;28;20042;-74
2023/06/07 00:33:58;;;;;;;1.67;1.05;;;;;;;15.93;100.00;100930.91;4983400;28;20827;-74
2023/06/07 00:36:24;;;;;;;4.85;2.80;;;;;;;15.93;100.00;100926.50;4984117;28;20097;-74
2023/06/07 00:38:50;;;;;;;3.58;1.48;;;;;;;15.18;100.00;100811.94;4991800;28;20049;-74
2023/06/07 00:41:16;;;;;;;4.38;3.40;;;;;;;15.91;100.00;100932.72;4987258;28;20097;-74
2023/06/07 00:43:42;;;;;;;2.67;1.50;;;;;;;15.81;100.00;100922.25;4991937;28;20070;-74
2023/06/07 00:46:08;;;;;;;3.53;1.83;;;;;;;15.12;100.00;100821.72;4992576;28;20038;-75
2023/06/07 00:48:34;;;;;;;4.03;1.67;;;;;;;15.65;100.00;100904.78;4982249;28;20057;-75
2023/06/07 00:51:00;;;;;;;4.07;1.92;;;;;;;15.73;100.00;100902.06;4990314;28;20164;-75
2023/06/07 00:53:27;;;;;;;2.88;1.98;;;;;;;14.86;100.00;100761.25;4990164;28;20145;-75
2023/06/07 00:55:52;;;;;;;3.03;1.75;;;;;;;15.81;100.00;100930.19;4990196;28;20042;-74
2023/06/07 00:58:19;;;;;;;3.00;1.70;;;;;;;15.26;100.00;100826.81;4993102;28;20568;-75
2023/06/07 01:00:46;;;;;;;2.97;1.55;;;;;;;15.68;100.00;100911.81;4992486;28;20165;-75
2023/06/07 01:03:12;;;;;;;4.35;2.20;;;;;;;15.06;100.00;100790.97;4991094;28;20069;-73
2023/06/07 01:05:37;;;;;;;4.18;2.28;;;;;;;15.66;100.00;100895.06;4983853;28;20049;-74
2023/06/07 01:08:03;;;;;;;3.92;1.70;;;;;;;15.05;100.00;100793.59;4983263;28;20042;-74
2023/06/07 01:10:30;;;;;;;3.63;1.50;;;;;;;15.38;100.00;100855.75;4979271;28;20043;-74
2023/06/07 01:12:56;;;;;;;2.58;1.38;;;;;;;15.63;100.00;100909.22;4974284;28;20073;-74
2023/06/07 01:15:23;;;;;;;1.92;1.25;;;;;;;15.03;100.00;100790.09;4991658;28;20034;-74
2023/06/07 01:17:51;;;;;;;2.92;1.48;;;;;;;15.48;100.00;100867.97;4977798;28;20101;-74
2023/06/07 01:20:24;;;;;;;1.75;1.13;;;;;;;15.62;100.00;100899.53;4987738;28;20541;-74
2023/06/07 01:22:52;;;;;;;1.80;1.10;;;;;;;14.71;100.00;100764.97;4985875;28;20039;-74
2023/06/07 01:25:18;;;;;;;2.40;1.25;;;;;;;15.29;100.00;100866.44;4982011;28;20046;-74
2023/06/07 01:27:46;;;;;;;2.63;1.50;;;;;;;15.29;100.00;100872.63;4985999;28;20859;-75
2023/06/07 01:30:12;;;;;;;3.20;1.40;;;;;;;15.19;100.00;100871.88;4985144;28;20038;-74
2023/06/07 01:32:41;;;;;;;6.93;1.95;;;;;;;15.47;100.00;100890.03;4984834;28;20046;-73
2023/06/07 01:35:08;;;;;;;3.38;1.50;;;;;;;15.46;100.00;100879.47;4983879;28;20044;-74
2023/06/07 01:37:36;;;;;;;2.92;1.52;;;;;;;14.69;100.00;100767.59;4986139;28;20083;-74
2023/06/07 01:40:05;;;;;;;3.38;2.13;;;;;;;14.83;100.00;100785.94;4986151;28;20050;-74
2023/06/07 01:42:33;;;;;;;2.28;1.25;;;;;;;14.62;100.00;100749.22;4986394;28;20061;-74
2023/06/07 01:45:00;;;;;;;3.85;1.95;;;;;;;15.36;100.00;100891.94;4986450;28;20047;-74
2023/06/07 01:47:25;;;;;;;3.58;1.70;;;;;;;15.33;100.00;100895.47;5012156;28;20114;-74
2023/06/07 01:49:51;;;;;;;6.28;1.73;;;;;;;14.85;100.00;100793.84;4982580;28;20046;-74
2023/06/07 01:52:16;;;;;;;3.22;1.92;;;;;;;15.11;100.00;100864.91;4980375;28;20136;-75
2023/06/07 01:54:43;;;;;;;6.13;2.17;;;;;;;15.31;100.00;100886.72;4984404;28;20069;-74
2023/06/07 01:57:16;;;;;;;2.80;1.40;;;;;;;15.43;100.00;100887.44;4985328;28;20030;-74
2023/06/07 02:00:05;;;;;;;4.67;2.60;;;;;;;14.93;100.00;100834.25;4989291;28;20100;-74
2023/06/07 02:02:53;;;;;;;4.13;1.98;;;;;;;15.04;100.00;100852.66;4983056;28;20050;-75
2023/06/07 02:05:38;;;;;;;2.60;1.50;;;;;;;14.61;100.00;100790.59;4983109;28;20069;-74
2023/06/07 02:08:13;;;;;;;2.58;1.60;;;;;;;14.91;100.00;100859.81;4989422;28;20050;-74
2023/06/07 02:10:41;;;;;;;2.88;1.42;;;;;;;14.45;100.00;100762.56;4983206;28;20591;-74
2023/06/07 02:13:07;;;;;;;5.55;2.83;;;;;;;14.52;100.00;100756.31;4989889;28;20046;-75
2023/06/07 02:15:33;;;;;;;2.50;1.60;;;;;;;14.55;100.00;100765.09;5019129;28;20026;-73
2023/06/07 02:18:04;;;;;;;3.85;2.30;;;;;;;15.13;100.00;100869.28;4970794;28;20027;-73
2023/06/07 02:20:33;;;;;;;4.22;2.08;;;;;;;14.99;100.00;100848.28;4987177;28;20043;-72
2023/06/07 02:22:59;;;;;;;2.58;1.73;;;;;;;14.49;100.00;100751.97;4989669;28;20502;-72
2023/06/07 02:25:24;;;;;;;2.65;1.15;;;;;;;14.93;100.00;100835.13;4991732;28;20081;-72
2023/06/07 02:27:50;;;;;;;3.00;1.60;;;;;;;14.92;100.00;100827.25;4992649;28;20077;-72
2023/06/07 02:30:16;;;;;;;4.13;2.30;;;;;;;15.06;100.00;100862.31;4992084;28;20474;-72
2023/06/07 02:32:48;;;;;;;4.70;2.88;;;;;;;15.12;100.00;100875.44;4990700;28;20038;-73
2023/06/07 02:35:15;;;;;;;3.38;1.80;;;;;;;15.01;100.00;100871.16;4990970;28;20063;-73
2023/06/07 02:37:41;;;;;;;5.43;2.35;;;;;;;15.05;100.00;100881.69;4981104;28;20502;-73
2023/06/07 02:40:10;;;;;;;5.50;2.38;;;;;;;14.52;100.00;100868.09;4976371;28;20045;-74
2023/06/07 02:42:36;;;;;;;6.50;2.30;;;;;;;13.82;100.00;100808.84;4991762;28;20750;-73
2023/06/07 02:45:03;;;;;;;3.35;2.25;;;;;;;14.13;100.00;100883.38;4990816;28;20337;-74
2023/06/07 02:47:31;;;;;;;4.18;2.30;;;;;;;13.60;100.00;100762.38;4989463;28;20101;-73
2023/06/07 02:49:57;;;;;;;4.47;1.85;;;;;;;13.94;100.00;100864.16;4991167;28;20058;-73
2023/06/07 02:52:27;;;;;;;8.27;3.05;;;;;;;13.59;100.00;100803.72;4991031;28;20058;-74
2023/06/07 02:54:53;;;;;;;4.32;2.35;;;;;;;13.61;100.00;100794.03;4988278;28;20479;-74
2023/06/07 02:57:18;;;;;;;4.97;2.30;;;;;;;14.14;100.00;100861.38;4992603;28;20141;-73
2023/06/07 02:59:44;;;;;;;4.90;1.83;;;;;;;14.11;100.00;100837.63;4989404;28;20461;-73
2023/06/07 03:02:10;;;;;;;5.72;1.83;;;;;;;14.04;100.00;100846.47;4987589;28;20050;-74
2023/06/07 03:04:38;;;;;;;5.22;2.30;;;;;;;13.45;100.00;100744.91;4991700;28;20498;-74
2023/06/07 03:07:05;;;;;;;2.92;1.90;;;;;;;12.20;100.00;100590.16;4991590;28;20138;-74
2023/06/07 03:09:30;;;;;;;3.92;2.60;;;;;;;13.99;100.00;100874.66;4988678;28;20057;-73
2023/06/07 03:11:56;;;;;;;8.20;2.88;;;;;;;14.14;100.00;100877.22;4984470;28;20058;-72
2023/06/07 03:14:23;;;;;;;4.38;2.85;;;;;;;13.80;100.00;100768.41;4988258;28;20609;-73
2023/06/07 03:16:48;;;;;;;4.32;3.00;;;;;;;13.88;100.00;100807.91;4987768;28;20058;-73
2023/06/07 03:19:14;;;;;;;5.30;2.72;;;;;;;13.76;100.00;100827.34;4987282;28;20042;-73
2023/06/07 03:21:44;;;;;;;6.90;2.22;;;;;;;13.49;100.00;100794.13;4987670;28;20130;-74
2023/06/07 03:24:11;;;;;;;5.15;3.13;;;;;;;13.91;100.00;100850.13;4985854;28;20046;-74
2023/06/07 03:26:37;;;;;;;4.28;2.30;;;;;;;13.26;100.00;100758.16;4986898;28;20053;-74
2023/06/07 03:29:02;;;;;;;5.15;2.70;;;;;;;13.91;100.00;100843.06;4984881;28;20058;-74
2023/06/07 03:31:28;;;;;;;9.27;2.38;;;;;;;13.90;100.00;100883.50;4978620;28;20062;-73
2023/06/07 03:33:54;;;;;;;3.75;2.33;;;;;;;13.01;100.00;100746.88;4971099;28;20050;-73
2023/06/07 03:36:25;;;;;;;4.30;2.50;;;;;;;13.16;100.00;100731.88;4988581;28;20405;-73
2023/06/07 03:38:52;;;;;;;5.07;3.08;;;;;;;13.46;100.00;100770.38;4986867;28;20050;-73
2023/06/07 03:41:17;;;;;;;7.40;3.45;;;;;;;13.50;100.00;100743.13;4984996;28;20753;-74
2023/06/07 03:43:43;;;;;;;6.40;2.83;;;;;;;13.85;100.00;100803.53;4987817;28;20054;-72
2023/06/07 03:46:08;;;;;;;5.13;2.25;;;;;;;13.76;100.00;100794.81;4986528;28;20591;-73
2023/06/07 03:48:33;;;;;;;3.78;1.95;;;;;;;13.69;100.00;100773.75;4987594;28;20117;-73
2023/06/07 03:51:00;;;;;;;5.85;2.72;;;;;;;13.62;100.00;100760.63;4980749;28;20037;-75
2023/06/07 03:53:25;;;;;;;4.43;2.72;;;;;;;13.83;100.00;100807.06;4985940;28;20145;-74
2023/06/07 03:55:52;;;;;;;5.50;3.45;;;;;;;14.31;100.00;100858.59;4981542;28;20474;-74
2023/06/07 03:58:18;;;;;;;5.97;3.08;;;;;;;13.77;100.00;100734.16;4987321;28;20035;-74
2023/06/07 04:00:45;;;;;;;3.95;2.42;;;;;;;14.32;100.00;100851.56;4983658;28;20057;-73
2023/06/07 04:03:11;;;;;;;4.55;2.50;;;;;;;13.66;100.00;100763.22;4986164;28;20041;-75
2023/06/07 04:05:38;;;;;;;3.30;1.88;;;;;;;13.69;100.00;100764.97;4987293;28;20819;-74
2023/06/07 04:08:05;;;;;;;5.75;2.20;;;;;;;14.09;100.00;100870.19;4984993;28;20046;-75
2023/06/07 04:10:31;;;;;;;4.90;3.08;;;;;;;13.91;100.00;100773.63;4982245;28;20170;-74
2023/06/07 04:12:56;;;;;;;4.00;2.65;;;;;;;14.62;100.00;100873.34;4987080;28;20054;-75
2023/06/07 04:15:22;;;;;;;8.23;3.25;;;;;;;14.01;100.00;100774.41;4987682;28;20729;-74
2023/06/07 04:17:47;;;;;;;4.85;2.40;;;;;;;14.54;100.00;100853.16;4983905;28;20447;-75
2023/06/07 04:20:15;;;;;;;3.92;2.20;;;;;;;14.76;100.00;100855.59;4982479;28;20047;-73
2023/06/07 04:22:44;;;;;;;8.38;3.83;;;;;;;14.09;100.00;100747.06;4984654;28;20046;-74
2023/06/07 04:25:10;;;;;;;3.83;2.38;;;;;;;14.56;100.00;100883.06;4984893;28;20046;-74
2023/06/07 04:27:37;;;;;;;6.80;2.67;;;;;;;13.92;100.00;100768.31;4986880;28;20026;-74
2023/06/07 04:30:04;;;;;;;5.28;2.38;;;;;;;14.64;100.00;100890.06;4987194;28;20037;-75
2023/06/07 04:32:29;;;;;;;5.90;2.97;;;;;;;14.71;100.00;100884.69;4968003;28;20054;-74
2023/06/07 04:34:56;;;;;;;5.93;2.97;;;;;;;14.86;100.00;100877.50;4976017;28;20050;-73
2023/06/07 04:37:21;;;;;;;3.00;2.08;;;;;;;15.05;100.00;100899.31;4985678;28;20041;-74
2023/06/07 04:39:49;;;;;;;4.15;2.72;;;;;;;15.17;100.00;100889.50;4979568;28;20057;-74
2023/06/07 04:42:16;;;;;;;6.18;3.05;;;;;;;14.64;100.00;100798.47;5013248;28;20443;-74
2023/06/07 04:44:44;;;;;;;9.38;3.75;;;;;;;14.99;100.00;100847.41;4986431;28;20034;-74
2023/06/07 04:47:10;;;;;;;3.58;2.28;;;;;;;14.52;100.00;100757.19;4984955;28;20375;-74
2023/06/07 04:49:38;;;;;;;4.72;2.90;;;;;;;15.32;100.00;100900.78;4983829;28;20065;-73
2023/06/07 04:52:05;;;;;;;10.20;3.95;;;;;;;15.58;100.00;100887.25;4982689;28;20605;-74
2023/06/07 04:54:32;;;;;;;5.43;3.53;;;;;;;15.32;100.00;100904.31;4981029;28;20026;-74
2023/06/07 04:56:58;;;;;;;4.85;2.88;;;;;;;15.35;100.00;100908.69;5000685;28;20534;-75
2023/06/07 04:59:24;;;;;;;4.90;2.85;;;;;;;15.54;100.00;100896.09;4984526;28;20092;-74
2023/06/07 05:01:50;;;;;;;4.78;3.60;;;;;;;15.82;100.00;100884.28;4984434;28;20093;-74
2023/06/07 05:04:19;;;;;;;4.47;2.83;;;;;;;15.06;100.00;100782.16;4984864;28;20052;-74
2023/06/07 05:06:46;;;;;;;8.05;2.60;;;;;;;15.74;100.00;100800.66;4984230;28;20520;-74
2023/06/07 05:09:11;;;;;;;6.72;3.33;;;;;;;16.06;100.00;100918.38;4986698;28;20026;-75
2023/06/07 05:11:37;;;;;;;4.90;2.30;;;;;;;15.98;100.00;100889.38;4983391;28;20049;-75
2023/06/07 05:14:02;;;;;;;6.50;2.85;;;;;;;16.13;100.00;100873.28;4973412;28;20450;-74
2023/06/07 05:16:32;;;;;;;3.97;2.50;;;;;;;16.19;100.00;100814.91;4969450;28;20066;-75
2023/06/07 05:18:57;;;;;;;4.60;2.67;;;;;;;16.62;100.00;100893.66;4980525;28;20456;-74
2023/06/07 05:21:23;;;;;;;5.82;3.15;;;;;;;17.00;100.00;100925.72;4982966;28;20030;-75
2023/06/07 05:23:49;;;;;;;3.70;2.28;;;;;;;16.44;100.00;100741.19;4985174;28;20050;-76
2023/06/07 05:26:15;;;;;;;3.58;2.63;;;;;;;18.08;100.00;100919.13;4985727;28;20109;-75
2023/06/07 05:28:42;;;;;;;4.22;2.28;;;;;;;18.72;100.00;100929.97;4980888;28;20493;-75
2023/06/07 05:31:07;;;;;;;4.05;2.35;;;;;;;19.03;100.00;100918.56;4977701;28;20055;-76
2023/06/07 05:33:33;;;;;;;4.63;2.15;;;;;;;18.88;100.00;100907.41;4964770;28;20046;-73
2023/06/07 05:35:58;;;;;;;3.83;2.45;;;;;;;18.66;100.00;100839.72;4960050;28;20035;-73
2023/06/07 05:38:24;;;;;;;6.88;2.33;;;;;;;18.73;100.00;100841.31;4960926;28;20060;-74
2023/06/07 05:40:49;;;;;;;6.38;3.25;;;;;;;19.74;100.00;100946.78;4962374;28;20046;-73
2023/06/07 05:43:15;;;;;;;9.23;3.90;;;;;;;19.59;100.00;100934.72;4963844;28;20085;-74
2023/06/07 05:45:41;;;;;;;3.45;1.80;;;;;;;19.32;100.00;100913.31;4965517;28;20041;-74
2023/06/07 05:48:07;;;;;;;8.30;2.67;;;;;;;19.67;100.00;100935.38;4967596;28;20050;-73
2023/06/07 05:50:33;;;;;;;4.32;2.22;;;;;;;20.14;100.00;100965.09;4980207;28;20505;-72
2023/06/07 05:52:59;;;;;;;17.17;12.73;;;;;;;21.12;100.00;100931.66;4982948;28;20155;-67
2023/06/07 05:55:28;;;;;;;18.80;12.00;;;;;;;21.80;100.00;100956.78;4970163;28;20047;-70
2023/06/07 05:57:56;;;;;;;5.53;2.78;;;;;;;20.15;100.00;100844.22;4976774;28;20065;-68
2023/06/07 06:00:22;;;;;;;31.42;25.00;;;;;;;21.09;100.00;100875.72;4983231;28;20562;-68
2023/06/07 06:02:48;;;;;;;4.03;2.45;;;;;;;20.49;100.00;100951.56;4978352;28;20054;-72
2023/06/07 06:05:15;;;;;;;3.35;2.13;;;;;;;19.50;100.00;100966.94;4983821;28;20042;-71
2023/06/07 06:07:41;;;;;;;2.58;1.48;;;;;;;18.93;100.00;100870.94;4980703;28;20149;-70
2023/06/07 06:10:07;;;;;;;2.65;1.23;;;;;;;20.59;100.00;100966.38;4976740;28;20162;-70
2023/06/07 06:12:33;;;;;;;5.00;1.60;;;;;;;20.67;100.00;100961.63;4979401;28;20505;-74
2023/06/07 06:15:00;;;;;;;4.53;1.38;;;;;;;20.27;100.00;100864.28;4976776;28;20042;-73
2023/06/07 06:17:27;;;;;;;2.75;1.30;;;;;;;20.79;100.00;100952.34;4972894;28;20491;-75
2023/06/07 06:19:53;;;;;;;3.42;1.70;;;;;;;20.74;100.00;100829.81;4966045;28;20061;-73
2023/06/07 06:22:18;;;;;;;8.52;4.95;;;;;;;21.56;100.00;100979.91;4980185;28;20042;-73
2023/06/07 06:24:43;;;;;;;3.75;1.42;;;;;;;19.71;100.00;100888.25;4970566;28;20041;-73
2023/06/07 06:27:12;;;;;;;2.28;1.13;;;;;;;19.77;100.00;100958.19;4981048;28;20066;-73
2023/06/07 06:29:37;;;;;;;3.85;1.77;;;;;;;20.79;100.00;100963.03;4977940;28;20050;-73
2023/06/07 06:32:05;;;;;;;2.42;1.10;;;;;;;20.94;100.00;100922.50;4977968;28;20509;-73
2023/06/07 06:34:32;;;;;;;3.20;1.33;;;;;;;21.01;100.00;100974.72;4978725;28;20073;-74
2023/06/07 06:36:58;;;;;;;4.90;1.73;;;;;;;20.65;100.00;100897.72;4982966;28;20110;-74
2023/06/07 06:39:23;;;;;;;2.42;1.08;;;;;;;20.92;100.00;100924.34;4983302;28;20074;-74
2023/06/07 06:41:49;;;;;;;6.15;2.03;;;;;;;20.33;100.00;100881.88;4974797;28;20395;-72
2023/06/07 06:44:14;;;;;;;4.53;1.70;;;;;;;20.81;100.00;100910.50;4972038;28;20482;-74
2023/06/07 06:46:40;;;;;;;8.50;3.80;;;;;;;21.44;100.00;100946.53;4977381;28;20058;-73
2023/06/07 06:49:05;;;;;;;3.70;1.58;;;;;;;21.08;100.00;100900.66;4983913;28;20496;-73
2023/06/07 06:51:31;;;;;;;4.93;1.45;;;;;;;21.45;100.00;100971.47;4977806;28;20037;-75
2023/06/07 06:53:56;;;;;;;5.90;1.65;;;;;;;;;;4978727;28;20124;-73
2023/06/07 06:56:22;;;;;;;3.53;1.55;;;;;;;21.58;100.00;100871.25;4983798;28;21080;-73
2023/06/07 06:58:47;;;;;;;2.47;1.27;;;;;;;22.00;100.00;100899.88;4972694;28;20430;-74
2023/06/07 07:01:16;;;;;;;4.10;2.15;;;;;;;21.22;100.00;100796.06;4966990;28;20562;-73
2023/06/07 07:03:42;;;;;;;3.70;1.33;;;;;;;22.02;100.00;100929.25;4970620;28;20054;-74
2023/06/07 07:06:08;;;;;;;3.70;3.38;;;;;;;21.25;95.81;100878.69;4969922;28;20035;-75
2023/06/07 07:08:34;;;;;;;2.63;1.13;;;;;;;22.01;93.94;100956.88;4968562;28;21314;-73
2023/06/07 07:11:00;;;;;;;4.45;1.63;;;;;;;21.82;87.20;100893.47;4962821;28;20065;-72
2023/06/07 07:13:25;;;;;;;2.33;1.63;;;;;;;22.03;89.52;100915.81;4966608;28;20054;-73
2023/06/07 07:16:01;;;;;;;4.90;1.55;;;;;;;22.46;91.46;100961.38;4970347;28;20046;-75
2023/06/07 07:18:29;;;;;;;1.52;0.80;;;;;;;22.97;85.21;100961.00;4966315;28;20065;-75
2023/06/07 07:21:02;;;;;;;1.67;1.00;;;;;;;22.77;84.44;100939.56;4966671;28;20400;-74
2023/06/07 07:23:35;;;;;;;2.47;1.30;;;;;;;22.66;83.64;100958.72;4966749;28;20140;-76
2023/06/07 07:26:03;;;;;;;5.53;1.05;;;;;;;22.45;87.26;100976.56;4985731;28;20057;-74
2023/06/07 07:28:29;;;;;;;2.38;1.45;;;;;;;22.29;88.06;100842.63;4970626;28;20054;-73
2023/06/07 07:30:54;;;;;;;2.17;1.58;;;;;;;23.00;83.09;100943.13;4967891;28;20050;-74
2023/06/07 07:33:20;;;;;;;2.60;1.02;;;;;;;22.53;83.03;100939.66;4970125;28;20042;-74
2023/06/07 07:35:45;;;;;;;2.55;0.82;;;;;;;21.85;87.84;100868.44;4966956;28;20050;-73
2023/06/07 07:38:15;;;;;;;4.88;2.58;;;;;;;23.17;82.99;100964.66;4969128;28;20124;-73
2023/06/07 07:40:47;;;;;;;3.45;1.40;;;;;;;22.70;74.70;100868.53;4965893;28;20054;-73
2023/06/07 07:43:12;;;;;;;1.52;1.10;;;;;;;23.20;76.51;100940.41;4967479;28;20062;-74
2023/06/07 07:45:38;;;;;;;2.15;1.25;;;;;;;23.31;81.19;100956.03;4972067;28;20105;-74
2023/06/07 07:48:04;;;;;;;10.65;4.93;;;;;;;22.95;81.14;100946.81;4965421;28;20046;-72
2023/06/07 07:50:29;;;;;;;6.30;3.92;;;;;;;23.54;81.27;100965.72;4974876;28;20046;-75
2023/06/07 07:52:56;;;;;;;3.42;1.45;;;;;;;23.25;73.85;100858.09;4984780;28;20105;-73
2023/06/07 07:55:23;;;;;;;3.83;1.45;;;;;;;22.96;74.61;100950.34;4977218;28;20039;-73
2023/06/07 07:57:48;;;;;;;34.33;30.42;;;;;;;23.58;84.80;100940.53;4977783;28;20506;-61
2023/06/07 08:00:14;;;;;;;93.55;73.95;;;;;;;24.28;83.02;100956.91;4964918;28;20105;-62
2023/06/07 08:02:40;;;;;;;160.75;125.90;;;;;;;24.35;97.03;100927.06;4976650;28;20055;-62
2023/06/07 08:05:07;;;;;;;87.63;69.28;;;;;;;24.75;91.31;100943.88;4982825;28;20058;-63
2023/06/07 08:07:33;;;;;;;23.98;20.42;;;;;;;24.60;63.16;100953.56;4985777;28;20048;-62
2023/06/07 08:09:58;;;;;;;23.92;15.60;;;;;;;23.98;58.91;100938.69;4976302;28;20054;-62
2023/06/07 08:12:24;;;;;;;17.67;15.43;;;;;;;23.85;60.86;100807.06;4975158;28;20600;-63
2023/06/07 08:14:49;;;;;;;27.80;19.63;;;;;;;24.85;63.51;100890.59;4984387;28;20050;-63
2023/06/07 08:17:15;;;;;;;23.25;16.50;;;;;;;25.48;61.63;100954.44;4982321;28;20561;-62
2023/06/07 08:19:40;;;;;;;15.25;9.05;;;;;;;25.40;59.41;100962.94;4976810;28;20051;-62
2023/06/07 08:22:06;;;;;;;26.48;17.98;;;;;;;25.01;66.77;100885.28;4987496;28;20047;-63
2023/06/07 08:24:32;;;;;;;20.42;13.15;;;;;;;24.69;71.34;100882.44;4985228;28;20018;-62
2023/06/07 08:26:57;;;;;;;4.00;2.33;;;;;;;24.76;57.26;100963.53;4977332;28;20097;-63
2023/06/07 08:29:23;;;;;;;3.72;2.88;;;;;;;23.04;57.45;100956.31;4977118;28;20050;-62
2023/06/07 08:31:48;;;;;;;16.85;9.07;;;;;;;24.52;59.53;100882.47;4979855;28;20069;-61
2023/06/07 08:34:14;;;;;;;8.88;2.88;;;;;;;25.03;54.93;100951.38;4983185;28;20062;-63
2023/06/07 08:36:39;;;;;;;4.38;2.22;;;;;;;24.21;54.17;100860.69;4984932;28;20034;-63
2023/06/07 08:39:05;;;;;;;11.75;8.43;;;;;;;24.51;57.67;100942.41;4980481;28;20034;-62
2023/06/07 08:41:31;;;;;;;3.05;1.77;;;;;;;24.42;55.39;100949.94;4975199;28;20081;-62
2023/06/07 08:43:56;;;;;;;3.28;1.13;;;;;;;23.94;52.67;100876.31;4974697;28;20461;-62
2023/06/07 08:46:23;;;;;;;3.25;1.02;;;;;;;23.83;50.46;100859.00;4978058;28;20050;-62
2023/06/07 08:48:51;;;;;;;6.43;4.88;;;;;;;24.52;56.06;100915.50;4985001;28;20584;-62
2023/06/07 08:51:19;;;;;;;4.90;1.40;;;;;;;24.55;49.52;100860.81;4981866;28;20046;-62
2023/06/07 08:53:54;;;;;;;18.92;2.45;;;;;;;24.62;50.46;100940.94;4979561;28;20066;-61
2023/06/07 08:56:21;;;;;;;9.02;6.35;;;;;;;24.55;59.73;100859.00;4977943;28;20073;-61
2023/06/07 08:58:48;;;;;;;2.00;0.98;;;;;;;24.32;48.91;100934.38;4980697;28;20415;-62
2023/06/07 09:01:14;;;;;;;2.78;1.48;;;;;;;25.08;50.76;100832.13;4962988;28;20676;-62
2023/06/07 09:03:40;;;;;;;4.07;2.22;;;;;;;24.30;49.42;100847.75;4980115;28;20030;-61
2023/06/07 09:06:06;;;;;;;1.80;1.02;;;;;;;25.15;47.52;100871.13;4983432;28;20270;-62
2023/06/07 09:08:32;;;;;;;3.85;1.45;;;;;;;24.79;45.55;100923.97;4983707;28;20380;-62
2023/06/07 09:10:57;;;;;;;3.45;1.40;;;;;;;24.26;45.71;100922.16;4978070;28;20157;-62
2023/06/07 09:13:24;;;;;;;2.22;1.20;;;;;;;24.99;44.72;100932.84;4982399;28;20043;-62
2023/06/07 09:15:52;;;;;;;2.97;1.10;;;;;;;24.89;45.10;100923.50;4979141;28;20030;-61
2023/06/07 09:18:18;;;;;;;1.63;0.90;;;;;;;24.69;45.21;100817.19;4980344;28;20034;-62
2023/06/07 09:20:43;;;;;;;3.40;1.85;;;;;;;24.38;46.91;100799.97;4979899;28;20082;-62
2023/06/07 09:23:14;;;;;;;2.22;1.48;;;;;;;25.26;48.29;100848.16;4979366;28;20125;-61
2023/06/07 09:25:45;;;;;;;4.32;2.22;;;;;;;25.64;50.66;100916.88;4976615;28;20047;-62
2023/06/07 09:28:15;;;;;;;2.28;1.13;;;;;;;24.34;45.67;100830.56;4981983;28;20057;-62
2023/06/07 09:30:55;;;;;;;3.83;2.05;;;;;;;25.64;48.20;100922.25;4972581;28;20093;-62
2023/06/07 09:33:28;;;;;;;4.55;2.28;;;;;;;25.99;46.74;100911.34;4976577;28;20121;-62
2023/06/07 09:36:15;;;;;;;1.77;1.00;;;;;;;25.40;46.75;100919.06;4976044;28;20051;-61
2023/06/07 09:38:41;;;;;;;4.80;2.05;;;;;;;25.46;44.72;100913.34;4977786;28;20502;-62
2023/06/07 09:41:09;;;;;;;2.95;1.20;;;;;;;25.84;45.63;100918.44;4974851;28;20445;-62
2023/06/07 09:43:51;;;;;;;5.25;2.22;;;;;;;26.43;47.42;100903.41;4975849;28;20061;-62
2023/06/07 09:46:18;;;;;;;2.83;1.30;;;;;;;26.21;45.53;100812.34;4980927;28;20093;-63
2023/06/07 09:48:53;;;;;;;5.18;2.10;;;;;;;25.84;43.57;100818.94;4983084;28;20030;-62
2023/06/07 09:51:20;;;;;;;2.95;1.02;;;;;;;25.60;43.52;100921.53;4980234;28;20133;-61
2023/06/07 09:53:53;;;;;;;4.78;1.42;;;;;;;25.12;43.40;100761.16;4982961;28;20425;-61
2023/06/07 09:56:20;;;;;;;2.47;1.38;;;;;;;27.47;44.36;100893.59;4982487;28;20502;-62
2023/06/07 09:58:49;;;;;;;4.47;1.20;;;;;;;27.57;42.31;100905.53;4982006;28;20490;-62
2023/06/07 10:01:29;;;;;;;4.00;1.80;;;;;;;27.19;41.99;100840.53;4970513;28;20499;-62
2023/06/07 10:03:54;;;;;;;3.63;1.40;;;;;;;27.74;42.39;100874.78;4979884;28;20067;-61
2023/06/07 10:06:20;;;;;;;1.23;0.75;;;;;;;25.69;40.87;100832.31;4974284;28;20487;-63
2023/06/07 10:08:46;;;;;;;1.08;0.60;;;;;;;25.43;42.67;100809.59;4977207;28;20152;-63
2023/06/07 10:11:14;;;;;;;1.50;0.77;;;;;;;27.25;42.48;100806.97;4978432;28;20072;-63
2023/06/07 10:13:42;;;;;;;2.83;1.25;;;;;;;27.83;42.37;100891.34;4978173;28;20046;-62
2023/06/07 10:16:10;;;;;;;1.45;0.80;;;;;;;26.48;40.44;100828.69;4970749;28;20042;-62
2023/06/07 10:18:39;;;;;;;17.35;1.33;;;;;;;25.24;41.94;100807.06;4982444;28;20022;-62
2023/06/07 10:21:19;;;;;;;1.23;0.77;;;;;;;26.88;41.01;100801.19;5006943;28;20506;-61
2023/06/07 10:23:55;;;;;;;3.92;1.40;;;;;;;27.69;41.85;100858.03;4983992;28;20093;-62
2023/06/07 10:26:53;;;;;;;3.03;1.15;;;;;;;27.87;40.54;100890.22;4977573;28;20073;-62
2023/06/07 10:29:30;;;;;;;2.65;0.93;;;;;;;27.42;39.91;100886.75;4981594;28;20499;-63
2023/06/07 10:32:25;;;;;;;1.88;0.75;;;;;;;27.83;39.69;100794.25;4986190;28;20496;-63
2023/06/07 10:34:54;;;;;;;1.85;1.17;;;;;;;27.42;39.46;100874.16;4974670;28;20050;-62
2023/06/07 10:37:22;;;;;;;3.83;1.23;;;;;;;27.00;39.14;100781.56;4971973;28;20503;-62
2023/06/07 10:39:48;;;;;;;1.67;1.25;;;;;;;27.85;39.92;100857.09;4963452;28;20043;-63
2023/06/07 10:42:16;;;;;;;2.83;1.17;;;;;;;27.52;39.68;100874.44;4984891;28;20041;-62
2023/06/07 10:44:43;;;;;;;2.40;1.33;;;;;;;27.78;39.59;100870.91;4988306;28;20070;-63
2023/06/07 10:47:20;;;;;;;8.23;1.58;;;;;;;27.32;39.44;100878.38;4983739;28;20424;-64
2023/06/07 10:49:46;;;;;;;3.85;2.22;;;;;;;27.00;42.23;100865.06;4986278;28;20050;-62
2023/06/07 10:52:14;;;;;;;3.53;1.85;;;;;;;27.26;41.96;100841.06;4986169;28;20050;-63
2023/06/07 10:54:41;;;;;;;5.28;2.95;;;;;;;27.93;41.34;100852.03;4985818;28;20502;-62
2023/06/07 10:57:07;;;;;;;1.02;0.90;;;;;;;27.32;40.21;100864.91;4978466;28;20509;-63
2023/06/07 10:59:33;;;;;;;8.07;1.58;;;;;;;27.53;39.51;100844.69;4985288;28;20054;-62
2023/06/07 11:02:21;;;;;;;1.75;1.15;;;;;;;27.36;39.48;100850.28;4987201;28;20149;-62
2023/06/07 11:04:53;;;;;;;6.97;4.75;;;;;;;27.68;41.23;100732.28;4980485;28;20142;-62
2023/06/07 11:07:30;;;;;;;12.20;9.98;;;;;;;27.61;43.22;100829.84;4985035;28;20050;-62
2023/06/07 11:10:04;;;;;;;8.68;5.28;;;;;;;28.07;42.03;100840.31;4983105;28;20047;-62
2023/06/07 11:12:35;;;;;;;2.28;1.35;;;;;;;27.42;41.04;100855.28;4986746;28;20053;-62
2023/06/07 11:15:21;;;;;;;3.72;1.67;;;;;;;26.37;42.24;100852.66;4984299;28;20093;-62
2023/06/07 11:18:03;;;;;;;3.47;1.75;;;;;;;27.73;42.14;100838.00;4985804;28;20455;-63
2023/06/07 11:20:38;;;;;;;1.60;0.90;;;;;;;27.49;40.96;100834.22;4984705;28;20104;-62
2023/06/07 11:23:29;;;;;;;7.13;5.50;;;;;;;27.75;40.74;100837.91;4984035;28;20783;-62